Long Island, Kansas
Current Conditions -  °F | °C
As of 10:15 AM on Wednesday 26 Nov 2014 (Local Time) from KHDE Reporting Station
Overcast Overcast  
Wind Chill: 19°   Ceiling: 2200
Heat Index: 31°   Visibility: 10mi
Dew Point: 20°   Wind: 21mph
Humidity: 63%   Direction: 340°NNW
Pressure: 30.2"   Gusts: 31mph
Location:  39.95°N, 99.54°W
Report Text: KHDE 261615Z AUTO 34018G27KT 10SM OVC022 00/M06 A3020 RMK AO2 T10031065
Loading
Personal Weather Stations






























Interactive Weather Map New forecast layout! Learn more

10-Day Weather Forecast

Advertisements
Track Severe Weather on mobile